Time,TemperatureF,DewpointF,PressureIn,WindDirection,WindDirectionDegrees,WindSpeedMPH,WindSpeedGustMPH,Humidity,HourlyPrecipIn,Conditions,Clouds,dailyrainin,SoftwareType,DateUTC
2013-07-29 00:03:00,57.1,53.3,30.18,WNW,289,4.0,11.0,87,0.00,,,0.00,Wunderground v.1.15,2013-07-29 08:03:00,
2013-07-29 00:08:00,56.9,53.1,30.18,WNW,289,1.0,11.0,87,0.00,,,0.00,Wunderground v.1.15,2013-07-29 08:08:00,
2013-07-29 00:14:00,56.5,52.7,30.18,WNW,289,0.0,11.0,87,0.00,,,0.00,Wunderground v.1.15,2013-07-29 08:14:00,
2013-07-29 00:19:00,56.3,52.8,30.18,WNW,289,0.0,11.0,88,0.00,,,0.00,Wunderground v.1.15,2013-07-29 08:19:00,
2013-07-29 00:24:00,56.0,52.8,30.18,WNW,289,0.0,11.0,89,0.00,,,0.00,Wunderground v.1.15,2013-07-29 08:24:00,
2013-07-29 00:30:00,55.9,52.7,30.18,WSW,257,0.0,11.0,89,0.00,,,0.00,Wunderground v.1.15,2013-07-29 08:30:00,
2013-07-29 00:36:00,56.2,53.3,30.18,West,270,1.0,11.0,90,0.00,,,0.00,Wunderground v.1.15,2013-07-29 08:36:00,
2013-07-29 00:42:00,56.8,53.6,30.18,WSW,256,3.0,11.0,89,0.00,,,0.00,Wunderground v.1.15,2013-07-29 08:42:00,
2013-07-29 00:48:00,57.0,53.5,30.18,West,267,4.0,11.0,88,0.00,,,0.00,Wunderground v.1.15,2013-07-29 08:48:00,
2013-07-29 00:54:00,56.9,53.4,30.18,WSW,239,1.0,11.0,88,0.00,,,0.00,Wunderground v.1.15,2013-07-29 08:54:00,
2013-07-29 00:59:00,56.7,53.5,30.18,West,278,0.0,4.0,89,0.00,,,0.00,Wunderground v.1.15,2013-07-29 08:59:00,
2013-07-29 01:05:00,56.6,53.4,30.18,West,278,0.0,4.0,89,0.00,,,0.00,Wunderground v.1.15,2013-07-29 09:05:00,
2013-07-29 01:11:00,56.6,53.4,30.18,West,269,0.0,4.0,89,0.00,,,0.00,Wunderground v.1.15,2013-07-29 09:11:00,
2013-07-29 01:17:00,56.7,53.5,30.18,West,266,1.0,4.0,89,0.00,,,0.00,Wunderground v.1.15,2013-07-29 09:17:00,
2013-07-29 01:22:00,56.6,53.4,30.18,West,266,0.0,4.0,89,0.00,,,0.00,Wunderground v.1.15,2013-07-29 09:22:00,
2013-07-29 01:28:00,56.6,53.4,30.18,West,267,0.0,4.0,89,0.00,,,0.00,Wunderground v.1.15,2013-07-29 09:28:00,
2013-07-29 01:34:00,56.5,53.3,30.18,West,266,0.0,4.0,89,0.00,,,0.00,Wunderground v.1.15,2013-07-29 09:34:00,
2013-07-29 01:40:00,56.5,53.6,30.18,West,266,0.0,4.0,90,0.00,,,0.00,Wunderground v.1.15,2013-07-29 09:40:00,
2013-07-29 01:46:00,56.9,54.0,30.18,West,266,0.0,4.0,90,0.00,,,0.00,Wunderground v.1.15,2013-07-29 09:46:00,
2013-07-29 01:51:00,57.1,53.9,30.18,West,266,0.0,4.0,89,0.00,,,0.00,Wunderground v.1.15,2013-07-29 09:51:00,
2013-07-29 01:56:00,57.3,54.1,30.18,West,267,0.0,4.0,89,0.00,,,0.00,Wunderground v.1.15,2013-07-29 09:56:00,
2013-07-29 02:02:00,57.2,53.7,30.18,West,267,0.0,1.0,88,0.00,,,0.00,Wunderground v.1.15,2013-07-29 10:02:00,
2013-07-29 02:07:00,57.1,53.6,30.18,West,266,0.0,1.0,88,0.00,,,0.00,Wunderground v.1.15,2013-07-29 10:07:00,
2013-07-29 02:13:00,56.9,53.4,30.18,West,266,0.0,1.0,88,0.00,,,0.00,Wunderground v.1.15,2013-07-29 10:13:00,
2013-07-29 02:18:00,56.7,53.5,30.18,West,267,0.0,1.0,89,0.00,,,0.00,Wunderground v.1.15,2013-07-29 10:18:00,
2013-07-29 02:24:00,56.7,53.8,30.18,West,266,0.0,1.0,90,0.00,,,0.00,Wunderground v.1.15,2013-07-29 10:24:00,
2013-07-29 02:29:00,57.1,54.2,30.17,West,272,1.0,2.0,90,0.00,,,0.00,Wunderground v.1.15,2013-07-29 10:29:00,
2013-07-29 02:37:00,57.7,54.2,30.17,West,269,1.0,2.0,88,0.00,,,0.00,Wunderground v.1.15,2013-07-29 10:37:00,
2013-07-29 02:42:00,58.0,54.2,30.18,West,269,1.0,1.0,87,0.00,,,0.00,Wunderground v.1.15,2013-07-29 10:42:00,
2013-07-29 02:48:00,58.1,54.2,30.17,West,269,0.0,1.0,87,0.00,,,0.00,Wunderground v.1.15,2013-07-29 10:48:00,
2013-07-29 02:53:00,58.0,54.2,30.17,West,269,0.0,1.0,87,0.00,,,0.00,Wunderground v.1.15,2013-07-29 10:53:00,
2013-07-29 02:59:00,58.1,54.2,30.17,West,269,0.0,1.0,87,0.00,,,0.00,Wunderground v.1.15,2013-07-29 10:59:00,
2013-07-29 03:05:00,58.2,54.3,30.17,West,269,0.0,1.0,87,0.00,,,0.00,Wunderground v.1.15,2013-07-29 11:05:00,
2013-07-29 03:11:00,58.4,54.5,30.17,West,269,0.0,1.0,87,0.00,,,0.00,Wunderground v.1.15,2013-07-29 11:11:00,
2013-07-29 03:17:00,58.4,54.2,30.17,West,269,0.0,1.0,86,0.00,,,0.00,Wunderground v.1.15,2013-07-29 11:17:00,
2013-07-29 03:23:00,58.1,53.9,30.17,West,269,0.0,1.0,86,0.00,,,0.00,Wunderground v.1.15,2013-07-29 11:23:00,
2013-07-29 03:28:00,57.6,53.8,30.17,West,269,0.0,1.0,87,0.00,,,0.00,Wunderground v.1.15,2013-07-29 11:28:00,
2013-07-29 03:34:00,57.2,53.7,30.17,West,269,0.0,1.0,88,0.00,,,0.00,Wunderground v.1.15,2013-07-29 11:34:00,
2013-07-29 03:39:00,57.0,53.5,30.17,West,269,0.0,1.0,88,0.00,,,0.00,Wunderground v.1.15,2013-07-29 11:39:00,
2013-07-29 03:45:00,56.9,53.7,30.17,West,269,0.0,1.0,89,0.00,,,0.00,Wunderground v.1.15,2013-07-29 11:45:00,
2013-07-29 03:50:00,56.8,53.6,30.17,West,268,0.0,1.0,89,0.00,,,0.00,Wunderground v.1.15,2013-07-29 11:50:00,
2013-07-29 03:56:00,56.7,53.5,30.17,West,269,0.0,1.0,89,0.00,,,0.00,Wunderground v.1.15,2013-07-29 11:56:00,
2013-07-29 04:02:00,56.7,53.8,30.16,West,269,0.0,0.0,90,0.00,,,0.00,Wunderground v.1.15,2013-07-29 12:02:00,
2013-07-29 04:07:00,56.8,53.9,30.16,West,269,0.0,0.0,90,0.00,,,0.00,Wunderground v.1.15,2013-07-29 12:07:00,
2013-07-29 04:13:00,56.9,53.7,30.16,West,269,0.0,0.0,89,0.00,,,0.00,Wunderground v.1.15,2013-07-29 12:13:00,
2013-07-29 04:18:00,56.8,53.6,30.16,West,269,0.0,0.0,89,0.00,,,0.00,Wunderground v.1.15,2013-07-29 12:18:00,
2013-07-29 04:23:00,56.7,53.5,30.16,West,269,0.0,0.0,89,0.00,,,0.00,Wunderground v.1.15,2013-07-29 12:23:00,
2013-07-29 04:28:00,56.7,53.8,30.16,West,269,0.0,0.0,90,0.00,,,0.00,Wunderground v.1.15,2013-07-29 12:28:00,
2013-07-29 04:33:00,57.0,54.1,30.16,West,269,0.0,0.0,90,0.00,,,0.00,Wunderground v.1.15,2013-07-29 12:33:00,
2013-07-29 04:38:00,57.0,53.8,30.16,West,269,0.0,0.0,89,0.00,,,0.00,Wunderground v.1.15,2013-07-29 12:38:00,
2013-07-29 04:44:00,57.2,54.0,30.16,West,269,0.0,0.0,89,0.00,,,0.00,Wunderground v.1.15,2013-07-29 12:44:00,
2013-07-29 04:49:00,57.5,54.0,30.16,West,269,0.0,0.0,88,0.00,,,0.00,Wunderground v.1.15,2013-07-29 12:49:00,
2013-07-29 04:55:00,57.6,53.8,30.16,West,269,0.0,0.0,87,0.00,,,0.00,Wunderground v.1.15,2013-07-29 12:55:00,
2013-07-29 05:01:00,57.5,53.7,30.16,West,269,0.0,0.0,87,0.00,,,0.00,Wunderground v.1.15,2013-07-29 13:01:00,
2013-07-29 05:06:00,57.2,53.4,30.16,West,269,0.0,0.0,87,0.00,,,0.00,Wunderground v.1.15,2013-07-29 13:06:00,
2013-07-29 05:12:00,56.7,53.2,30.17,West,269,0.0,1.0,88,0.00,,,0.00,Wunderground v.1.15,2013-07-29 13:12:00,
2013-07-29 05:17:00,56.9,53.7,30.17,West,269,0.0,1.0,89,0.00,,,0.00,Wunderground v.1.15,2013-07-29 13:17:00,
2013-07-29 05:23:00,57.0,53.8,30.16,West,268,0.0,0.0,89,0.00,,,0.00,Wunderground v.1.15,2013-07-29 13:23:00,
2013-07-29 05:28:00,57.0,53.8,30.17,West,268,0.0,0.0,89,0.00,,,0.00,Wunderground v.1.15,2013-07-29 13:28:00,
2013-07-29 05:33:00,56.9,53.7,30.17,West,269,0.0,0.0,89,0.00,,,0.00,Wunderground v.1.15,2013-07-29 13:33:00,
2013-07-29 05:39:00,57.0,53.8,30.17,West,269,1.0,1.0,89,0.00,,,0.00,Wunderground v.1.15,2013-07-29 13:39:00,
2013-07-29 05:44:00,56.8,53.6,30.16,West,269,1.0,1.0,89,0.00,,,0.00,Wunderground v.1.15,2013-07-29 13:44:00,
2013-07-29 05:49:00,57.3,54.1,30.16,West,268,0.0,0.0,89,0.00,,,0.00,Wunderground v.1.15,2013-07-29 13:49:00,
2013-07-29 05:55:00,57.6,53.8,30.16,West,269,0.0,1.0,87,0.00,,,0.00,Wunderground v.1.15,2013-07-29 13:55:00,
2013-07-29 06:02:00,57.5,53.7,30.16,West,269,1.0,2.0,87,0.00,,,0.00,Wunderground v.1.15,2013-07-29 14:02:00,
2013-07-29 06:07:00,57.5,53.7,30.16,West,269,0.0,2.0,87,0.00,,,0.00,Wunderground v.1.15,2013-07-29 14:07:00,
2013-07-29 06:12:00,57.4,53.6,30.16,West,269,0.0,2.0,87,0.00,,,0.00,Wunderground v.1.15,2013-07-29 14:12:00,
2013-07-29 06:17:00,57.4,53.6,30.16,West,269,0.0,2.0,87,0.00,,,0.00,Wunderground v.1.15,2013-07-29 14:17:00,
2013-07-29 06:22:00,57.3,53.8,30.16,West,276,0.0,2.0,88,0.00,,,0.00,Wunderground v.1.15,2013-07-29 14:22:00,
2013-07-29 06:27:00,57.1,53.6,30.16,NW,307,0.0,2.0,88,0.00,,,0.00,Wunderground v.1.15,2013-07-29 14:27:00,
2013-07-29 06:33:00,56.8,53.3,30.16,NW,307,0.0,2.0,88,0.00,,,0.00,Wunderground v.1.15,2013-07-29 14:33:00,
2013-07-29 06:39:00,56.6,53.4,30.16,NW,306,0.0,2.0,89,0.00,,,0.00,Wunderground v.1.15,2013-07-29 14:39:00,
2013-07-29 06:45:00,56.4,53.2,30.16,NW,307,0.0,2.0,89,0.00,,,0.00,Wunderground v.1.15,2013-07-29 14:45:00,
2013-07-29 06:51:00,56.3,53.1,30.16,NW,307,0.0,2.0,89,0.00,,,0.00,Wunderground v.1.15,2013-07-29 14:51:00,
2013-07-29 06:56:00,56.4,53.2,30.16,NW,306,0.0,2.0,89,0.00,,,0.00,Wunderground v.1.15,2013-07-29 14:56:00,
2013-07-29 07:02:00,56.6,53.4,30.16,NW,306,0.0,0.0,89,0.00,,,0.00,Wunderground v.1.15,2013-07-29 15:02:00,
2013-07-29 07:07:00,56.8,53.6,30.16,NW,305,0.0,0.0,89,0.00,,,0.00,Wunderground v.1.15,2013-07-29 15:07:00,
2013-07-29 07:12:00,57.1,53.9,30.16,NW,305,0.0,0.0,89,0.00,,,0.00,Wunderground v.1.15,2013-07-29 15:12:00,
2013-07-29 07:18:00,57.6,54.1,30.16,NW,305,0.0,0.0,88,0.00,,,0.00,Wunderground v.1.15,2013-07-29 15:18:00,
2013-07-29 07:27:00,58.4,54.5,30.16,North,350,0.0,0.0,87,0.00,,,0.00,Wunderground v.1.15,2013-07-29 15:27:00,
2013-07-29 07:32:00,58.6,54.4,30.16,NE,38,0.0,1.0,86,0.00,,,0.00,Wunderground v.1.15,2013-07-29 15:32:00,
2013-07-29 07:38:00,58.8,54.6,30.16,NE,38,0.0,1.0,86,0.00,,,0.00,Wunderground v.1.15,2013-07-29 15:38:00,
2013-07-29 07:43:00,58.9,54.7,30.16,NE,38,0.0,1.0,86,0.00,,,0.00,Wunderground v.1.15,2013-07-29 15:43:00,
2013-07-29 07:49:00,59.3,54.8,30.16,NE,38,0.0,0.0,85,0.00,,,0.00,Wunderground v.1.15,2013-07-29 15:49:00,
2013-07-29 07:55:00,59.5,54.7,30.16,NE,47,0.0,1.0,84,0.00,,,0.00,Wunderground v.1.15,2013-07-29 15:55:00,
2013-07-29 08:00:00,59.5,55.0,30.16,NE,48,1.0,2.0,85,0.00,,,0.00,Wunderground v.1.15,2013-07-29 16:00:00,
2013-07-29 08:06:00,59.7,55.5,30.16,NE,35,0.0,2.0,86,0.00,,,0.00,Wunderground v.1.15,2013-07-29 16:06:00,
2013-07-29 08:12:00,60.2,55.7,30.16,NE,56,0.0,2.0,85,0.00,,,0.00,Wunderground v.1.15,2013-07-29 16:12:00,
2013-07-29 08:17:00,60.3,55.4,30.16,NE,45,1.0,2.0,84,0.00,,,0.00,Wunderground v.1.15,2013-07-29 16:17:00,
2013-07-29 08:22:00,60.2,55.7,30.16,NE,50,1.0,2.0,85,0.00,,,0.00,Wunderground v.1.15,2013-07-29 16:22:00,
2013-07-29 08:28:00,60.2,55.7,30.16,ENE,58,1.0,2.0,85,0.00,,,0.00,Wunderground v.1.15,2013-07-29 16:28:00,
2013-07-29 08:35:00,60.2,55.7,30.16,ENE,57,1.0,2.0,85,0.00,,,0.00,Wunderground v.1.15,2013-07-29 16:35:00,
2013-07-29 08:40:00,60.4,56.2,30.16,ENE,58,1.0,2.0,86,0.00,,,0.00,Wunderground v.1.15,2013-07-29 16:40:00,
2013-07-29 08:46:00,60.7,56.2,30.16,East,80,0.0,2.0,85,0.00,,,0.00,Wunderground v.1.15,2013-07-29 16:46:00,
2013-07-29 08:52:00,60.7,56.2,30.16,East,87,0.0,2.0,85,0.00,,,0.00,Wunderground v.1.15,2013-07-29 16:52:00,
2013-07-29 08:58:00,60.7,55.8,30.16,East,91,0.0,2.0,84,0.00,,,0.00,Wunderground v.1.15,2013-07-29 16:58:00,
2013-07-29 09:04:00,61.0,56.5,30.16,East,91,0.0,1.0,85,0.00,,,0.00,Wunderground v.1.15,2013-07-29 17:04:00,
2013-07-29 09:09:00,61.1,56.2,30.16,ESE,109,0.0,1.0,84,0.00,,,0.00,Wunderground v.1.15,2013-07-29 17:09:00,
2013-07-29 09:14:00,61.2,56.3,30.17,ESE,107,0.0,1.0,84,0.00,,,0.00,Wunderground v.1.15,2013-07-29 17:14:00,
2013-07-29 09:20:00,61.4,56.8,30.17,SE,129,0.0,1.0,85,0.00,,,0.00,Wunderground v.1.15,2013-07-29 17:20:00,
2013-07-29 09:26:00,61.8,57.2,30.17,ESE,114,0.0,1.0,85,0.00,,,0.00,Wunderground v.1.15,2013-07-29 17:26:00,
2013-07-29 09:32:00,62.4,56.8,30.17,SE,127,0.0,1.0,82,0.00,,,0.00,Wunderground v.1.15,2013-07-29 17:32:00,
2013-07-29 09:38:00,62.8,57.2,30.17,ESE,118,0.0,1.0,82,0.00,,,0.00,Wunderground v.1.15,2013-07-29 17:38:00,
2013-07-29 09:44:00,63.0,57.4,30.17,East,81,1.0,3.0,82,0.00,,,0.00,Wunderground v.1.15,2013-07-29 17:44:00,
2013-07-29 09:49:00,62.7,57.1,30.17,East,93,1.0,2.0,82,0.00,,,0.00,Wunderground v.1.15,2013-07-29 17:49:00,
2013-07-29 09:54:00,62.6,57.4,30.17,East,87,2.0,2.0,83,0.00,,,0.00,Wunderground v.1.15,2013-07-29 17:54:00,
2013-07-29 09:59:00,63.0,57.8,30.17,East,89,1.0,1.0,83,0.00,,,0.00,Wunderground v.1.15,2013-07-29 17:59:00,
2013-07-29 10:05:00,62.8,56.9,30.17,ESE,120,1.0,3.0,81,0.00,,,0.00,Wunderground v.1.15,2013-07-29 18:05:00,
2013-07-29 10:11:00,62.2,56.6,30.17,ENE,72,2.0,3.0,82,0.00,,,0.00,Wunderground v.1.15,2013-07-29 18:11:00,
2013-07-29 10:17:00,62.4,56.8,30.17,SE,131,1.0,3.0,82,0.00,,,0.00,Wunderground v.1.15,2013-07-29 18:17:00,
2013-07-29 10:22:00,62.8,57.2,30.17,East,85,1.0,3.0,82,0.00,,,0.00,Wunderground v.1.15,2013-07-29 18:22:00,
2013-07-29 10:27:00,63.1,57.2,30.17,ESE,111,1.0,3.0,81,0.00,,,0.00,Wunderground v.1.15,2013-07-29 18:27:00,
2013-07-29 10:33:00,63.6,57.3,30.17,ESE,103,1.0,3.0,80,0.00,,,0.00,Wunderground v.1.15,2013-07-29 18:33:00,
2013-07-29 10:38:00,64.1,57.5,30.17,SE,143,1.0,3.0,79,0.00,,,0.00,Wunderground v.1.15,2013-07-29 18:38:00,
2013-07-29 10:43:00,64.3,57.6,30.17,East,89,1.0,3.0,79,0.00,,,0.00,Wunderground v.1.15,2013-07-29 18:43:00,
2013-07-29 10:48:00,64.5,57.8,30.17,ESE,114,1.0,3.0,79,0.00,,,0.00,Wunderground v.1.15,2013-07-29 18:48:00,
2013-07-29 10:54:00,64.7,57.7,30.17,ESE,110,1.0,3.0,78,0.00,,,0.00,Wunderground v.1.15,2013-07-29 18:54:00,
2013-07-29 10:59:00,64.3,58.0,30.17,ENE,70,2.0,2.0,80,0.00,,,0.00,Wunderground v.1.15,2013-07-29 18:59:00,
2013-07-29 11:05:00,64.9,58.2,30.17,East,87,1.0,5.0,79,0.00,,,0.00,Wunderground v.1.15,2013-07-29 19:05:00,
2013-07-29 11:10:00,65.4,58.0,30.16,ENE,75,1.0,2.0,77,0.00,,,0.00,Wunderground v.1.15,2013-07-29 19:10:00,
2013-07-29 11:16:00,65.6,57.8,30.17,ESE,109,2.0,5.0,76,0.00,,,0.00,Wunderground v.1.15,2013-07-29 19:16:00,
2013-07-29 11:21:00,65.9,57.7,30.17,ESE,111,1.0,5.0,75,0.00,,,0.00,Wunderground v.1.15,2013-07-29 19:21:00,
2013-07-29 11:27:00,66.0,58.2,30.17,SE,129,2.0,5.0,76,0.00,,,0.00,Wunderground v.1.15,2013-07-29 19:27:00,
2013-07-29 11:33:00,65.6,57.8,30.17,SSE,157,2.0,5.0,76,0.00,,,0.00,Wunderground v.1.15,2013-07-29 19:33:00,
2013-07-29 11:38:00,65.4,57.6,30.16,East,79,2.0,5.0,76,0.00,,,0.00,Wunderground v.1.15,2013-07-29 19:38:00,
2013-07-29 11:44:00,65.3,57.9,30.17,East,97,1.0,5.0,77,0.00,,,0.00,Wunderground v.1.15,2013-07-29 19:44:00,
2013-07-29 11:49:00,65.6,57.5,30.17,ESE,117,1.0,1.0,75,0.00,,,0.00,Wunderground v.1.15,2013-07-29 19:49:00,
2013-07-29 11:54:00,65.6,57.5,30.17,East,91,1.0,5.0,75,0.00,,,0.00,Wunderground v.1.15,2013-07-29 19:54:00,
2013-07-29 11:59:00,65.7,58.3,30.17,ESE,120,2.0,5.0,77,0.00,,,0.00,Wunderground v.1.15,2013-07-29 19:59:00,
2013-07-29 12:05:00,66.4,58.6,30.17,East,85,1.0,8.0,76,0.00,,,0.00,Wunderground v.1.15,2013-07-29 20:05:00,
2013-07-29 12:10:00,67.0,58.4,30.17,SSE,147,2.0,5.0,74,0.00,,,0.00,Wunderground v.1.15,2013-07-29 20:10:00,
2013-07-29 12:16:00,67.6,59.4,30.17,South,186,2.0,5.0,75,0.00,,,0.00,Wunderground v.1.15,2013-07-29 20:16:00,
2013-07-29 12:21:00,67.5,58.2,30.17,SSW,208,3.0,7.0,72,0.00,,,0.00,Wunderground v.1.15,2013-07-29 20:21:00,
2013-07-29 12:27:00,67.2,59.0,30.17,SSE,155,5.0,7.0,75,0.00,,,0.00,Wunderground v.1.15,2013-07-29 20:27:00,
2013-07-29 12:32:00,67.2,58.2,30.17,South,189,5.0,7.0,73,0.00,,,0.00,Wunderground v.1.15,2013-07-29 20:32:00,
2013-07-29 12:38:00,67.4,58.8,30.17,WSW,247,5.0,7.0,74,0.00,,,0.00,Wunderground v.1.15,2013-07-29 20:38:00,
2013-07-29 12:43:00,67.5,58.9,30.17,SSW,210,4.0,9.0,74,0.00,,,0.00,Wunderground v.1.15,2013-07-29 20:43:00,
2013-07-29 12:49:00,66.9,58.3,30.17,SSE,165,4.0,5.0,74,0.00,,,0.00,Wunderground v.1.15,2013-07-29 20:49:00,
2013-07-29 12:54:00,66.6,58.8,30.17,WSW,239,5.0,9.0,76,0.00,,,0.00,Wunderground v.1.15,2013-07-29 20:54:00,
2013-07-29 12:59:00,66.6,57.7,30.17,SSW,201,6.0,6.0,73,0.00,,,0.00,Wunderground v.1.15,2013-07-29 20:59:00,
2013-07-29 13:05:00,66.9,58.3,30.17,SSE,167,5.0,14.0,74,0.00,,,0.00,Wunderground v.1.15,2013-07-29 21:05:00,
2013-07-29 13:10:00,67.0,58.8,30.17,SW,231,4.0,7.0,75,0.00,,,0.00,Wunderground v.1.15,2013-07-29 21:10:00,
2013-07-29 13:15:00,66.9,58.3,30.17,SSE,168,5.0,14.0,74,0.00,,,0.00,Wunderground v.1.15,2013-07-29 21:15:00,
2013-07-29 13:20:00,66.8,58.2,30.17,South,187,5.0,14.0,74,0.00,,,0.00,Wunderground v.1.15,2013-07-29 21:20:00,
2013-07-29 13:26:00,67.1,58.2,30.17,SW,236,5.0,14.0,73,0.00,,,0.00,Wunderground v.1.15,2013-07-29 21:26:00,
2013-07-29 13:32:00,67.7,58.7,30.17,SSW,193,4.0,14.0,73,0.00,,,0.00,Wunderground v.1.15,2013-07-29 21:32:00,
2013-07-29 13:37:00,67.6,58.2,30.17,South,170,3.0,14.0,72,0.00,,,0.00,Wunderground v.1.15,2013-07-29 21:37:00,
2013-07-29 13:43:00,67.2,58.6,30.17,SSE,163,5.0,14.0,74,0.00,,,0.00,Wunderground v.1.15,2013-07-29 21:43:00,
2013-07-29 13:48:00,67.4,58.8,30.17,SSW,195,4.0,14.0,74,0.00,,,0.00,Wunderground v.1.15,2013-07-29 21:48:00,
2013-07-29 13:53:00,67.7,59.1,30.17,SSE,160,3.0,14.0,74,0.00,,,0.00,Wunderground v.1.15,2013-07-29 21:53:00,
2013-07-29 14:00:00,68.0,58.6,30.17,SSE,164,4.0,11.0,72,0.00,,,0.00,Wunderground v.1.15,2013-07-29 22:00:00,
2013-07-29 14:05:00,67.2,58.2,30.17,SSW,197,5.0,11.0,73,0.00,,,0.00,Wunderground v.1.15,2013-07-29 22:05:00,
2013-07-29 14:10:00,66.9,58.3,30.17,South,185,6.0,11.0,74,0.00,,,0.00,Wunderground v.1.15,2013-07-29 22:10:00,
2013-07-29 14:15:00,67.1,57.8,30.17,SW,229,5.0,12.0,72,0.00,,,0.00,Wunderground v.1.15,2013-07-29 22:15:00,
2013-07-29 14:20:00,66.0,57.5,30.17,SSW,210,6.0,11.0,74,0.00,,,0.00,Wunderground v.1.15,2013-07-29 22:20:00,
2013-07-29 14:25:00,66.3,57.8,30.17,WSW,245,7.0,11.0,74,0.00,,,0.00,Wunderground v.1.15,2013-07-29 22:25:00,
2013-07-29 14:31:00,66.2,57.7,30.17,WSW,237,6.0,11.0,74,0.00,,,0.00,Wunderground v.1.15,2013-07-29 22:31:00,
2013-07-29 14:36:00,66.8,58.2,30.17,SW,224,5.0,11.0,74,0.00,,,0.00,Wunderground v.1.15,2013-07-29 22:36:00,
2013-07-29 14:42:00,66.2,56.9,30.17,SSW,212,5.0,11.0,72,0.00,,,0.00,Wunderground v.1.15,2013-07-29 22:42:00,
2013-07-29 14:47:00,65.8,57.7,30.17,SW,224,7.0,11.0,75,0.00,,,0.00,Wunderground v.1.15,2013-07-29 22:47:00,
2013-07-29 14:52:00,66.4,58.2,30.17,South,177,6.0,11.0,75,0.00,,,0.00,Wunderground v.1.15,2013-07-29 22:52:00,
2013-07-29 14:58:00,66.7,57.4,30.17,SW,216,5.0,11.0,72,0.00,,,0.00,Wunderground v.1.15,2013-07-29 22:58:00,
2013-07-29 15:03:00,66.3,57.0,30.17,SW,225,6.0,11.0,72,0.00,,,0.00,Wunderground v.1.15,2013-07-29 23:03:00,
2013-07-29 15:08:00,66.1,57.2,30.17,South,174,6.0,11.0,73,0.00,,,0.00,Wunderground v.1.15,2013-07-29 23:08:00,
2013-07-29 15:14:00,66.4,58.2,30.17,SSE,151,6.0,11.0,75,0.00,,,0.00,Wunderground v.1.15,2013-07-29 23:14:00,
2013-07-29 15:20:00,67.1,58.2,30.17,SSW,201,5.0,11.0,73,0.00,,,0.00,Wunderground v.1.15,2013-07-29 23:20:00,
2013-07-29 15:26:00,67.3,58.3,30.17,South,183,5.0,11.0,73,0.00,,,0.00,Wunderground v.1.15,2013-07-29 23:26:00,
2013-07-29 15:32:00,67.2,58.2,30.17,SW,226,5.0,11.0,73,0.00,,,0.00,Wunderground v.1.15,2013-07-29 23:32:00,
2013-07-29 15:37:00,67.3,57.6,30.17,SW,223,5.0,11.0,71,0.00,,,0.00,Wunderground v.1.15,2013-07-29 23:37:00,
2013-07-29 15:43:00,67.6,59.0,30.17,South,181,4.0,11.0,74,0.00,,,0.00,Wunderground v.1.15,2013-07-29 23:43:00,
2013-07-29 15:48:00,68.1,58.3,30.17,South,170,3.0,11.0,71,0.00,,,0.00,Wunderground v.1.15,2013-07-29 23:48:00,
2013-07-29 15:53:00,67.9,58.5,30.17,SSW,192,4.0,11.0,72,0.00,,,0.00,Wunderground v.1.15,2013-07-29 23:53:00,
2013-07-29 15:59:00,67.9,58.1,30.17,SSW,193,5.0,5.0,71,0.00,,,0.00,Wunderground v.1.15,2013-07-29 23:59:00,
2013-07-29 16:05:00,68.5,59.1,30.17,South,191,4.0,10.0,72,0.00,,,0.00,Wunderground v.1.15,2013-07-30 00:05:00,
2013-07-29 16:13:00,68.1,57.9,30.17,SSE,166,5.0,10.0,70,0.00,,,0.00,Wunderground v.1.15,2013-07-30 00:13:00,
2013-07-29 16:18:00,67.2,57.5,30.17,SW,222,7.0,10.0,71,0.00,,,0.00,Wunderground v.1.15,2013-07-30 00:18:00,
2013-07-29 16:23:00,67.0,57.7,30.16,South,182,6.0,11.0,72,0.00,,,0.00,Wunderground v.1.15,2013-07-30 00:23:00,
2013-07-29 16:28:00,67.1,57.8,30.16,South,191,6.0,11.0,72,0.00,,,0.00,Wunderground v.1.15,2013-07-30 00:28:00,
2013-07-29 16:33:00,66.9,58.3,30.16,WSW,241,5.0,10.0,74,0.00,,,0.00,Wunderground v.1.15,2013-07-30 00:33:00,
2013-07-29 16:39:00,66.4,57.1,30.16,SW,215,5.0,10.0,72,0.00,,,0.00,Wunderground v.1.15,2013-07-30 00:39:00,
2013-07-29 16:44:00,66.8,58.2,30.17,SW,220,5.0,10.0,74,0.00,,,0.00,Wunderground v.1.15,2013-07-30 00:44:00,
2013-07-29 16:50:00,66.6,57.3,30.16,SSW,208,4.0,10.0,72,0.00,,,0.00,Wunderground v.1.15,2013-07-30 00:50:00,
2013-07-29 16:55:00,66.5,58.0,30.16,SSW,205,5.0,10.0,74,0.00,,,0.00,Wunderground v.1.15,2013-07-30 00:55:00,
2013-07-29 17:00:00,66.5,58.0,30.16,WSW,241,5.0,8.0,74,0.00,,,0.00,Wunderground v.1.15,2013-07-30 01:00:00,
2013-07-29 17:06:00,66.9,58.3,30.16,SW,214,4.0,12.0,74,0.00,,,0.00,Wunderground v.1.15,2013-07-30 01:06:00,
2013-07-29 17:11:00,66.3,57.0,30.16,South,190,5.0,12.0,72,0.00,,,0.00,Wunderground v.1.15,2013-07-30 01:11:00,
2013-07-29 17:17:00,65.7,56.8,30.16,SSW,212,7.0,12.0,73,0.00,,,0.00,Wunderground v.1.15,2013-07-30 01:17:00,
2013-07-29 17:23:00,65.2,57.1,30.16,South,182,6.0,12.0,75,0.00,,,0.00,Wunderground v.1.15,2013-07-30 01:23:00,
2013-07-29 17:28:00,64.7,57.0,30.16,SW,233,6.0,12.0,76,0.00,,,0.00,Wunderground v.1.15,2013-07-30 01:28:00,
2013-07-29 17:33:00,64.3,56.2,30.16,SSW,199,7.0,12.0,75,0.00,,,0.00,Wunderground v.1.15,2013-07-30 01:33:00,
2013-07-29 17:38:00,64.3,56.6,30.16,SW,218,7.0,12.0,76,0.00,,,0.00,Wunderground v.1.15,2013-07-30 01:38:00,
2013-07-29 17:44:00,64.4,56.7,30.16,SW,234,7.0,12.0,76,0.00,,,0.00,Wunderground v.1.15,2013-07-30 01:44:00,
2013-07-29 17:49:00,64.5,56.8,30.16,SW,231,7.0,7.0,76,0.00,,,0.00,Wunderground v.1.15,2013-07-30 01:49:00,
2013-07-29 17:58:00,64.1,56.4,30.16,WSW,243,7.0,12.0,76,0.00,,,0.00,Wunderground v.1.15,2013-07-30 01:58:00,
2013-07-29 18:03:00,64.0,56.6,30.16,SW,233,6.0,14.0,77,0.00,,,0.00,Wunderground v.1.15,2013-07-30 02:03:00,
2013-07-29 18:09:00,63.9,56.5,30.16,West,278,6.0,14.0,77,0.00,,,0.00,Wunderground v.1.15,2013-07-30 02:09:00,
2013-07-29 18:14:00,63.8,56.1,30.16,WSW,258,7.0,14.0,76,0.00,,,0.00,Wunderground v.1.15,2013-07-30 02:14:00,
2013-07-29 18:19:00,63.8,56.1,30.16,WSW,241,6.0,6.0,76,0.00,,,0.00,Wunderground v.1.15,2013-07-30 02:19:00,
2013-07-29 18:24:00,64.0,56.6,30.16,WSW,246,6.0,14.0,77,0.00,,,0.00,Wunderground v.1.15,2013-07-30 02:24:00,
2013-07-29 18:30:00,64.2,56.5,30.15,SW,235,6.0,14.0,76,0.00,,,0.00,Wunderground v.1.15,2013-07-30 02:30:00,
2013-07-29 18:35:00,64.3,56.6,30.15,West,260,5.0,14.0,76,0.00,,,0.00,Wunderground v.1.15,2013-07-30 02:35:00,
2013-07-29 18:41:00,64.2,56.1,30.15,SW,231,5.0,14.0,75,0.00,,,0.00,Wunderground v.1.15,2013-07-30 02:41:00,
2013-07-29 18:46:00,64.0,56.3,30.15,WSW,247,6.0,14.0,76,0.00,,,0.00,Wunderground v.1.15,2013-07-30 02:46:00,
2013-07-29 18:53:00,64.2,56.8,30.15,West,271,5.0,14.0,77,0.00,,,0.00,Wunderground v.1.15,2013-07-30 02:53:00,
2013-07-29 18:59:00,64.5,56.8,30.15,SSW,207,4.0,8.0,76,0.00,,,0.00,Wunderground v.1.15,2013-07-30 02:59:00,
2013-07-29 19:05:00,64.5,56.4,30.15,SW,216,4.0,8.0,75,0.00,,,0.00,Wunderground v.1.15,2013-07-30 03:05:00,
2013-07-29 19:10:00,64.0,55.9,30.15,SW,216,5.0,13.0,75,0.00,,,0.00,Wunderground v.1.15,2013-07-30 03:10:00,
2013-07-29 19:15:00,63.8,56.1,30.15,SW,234,5.0,13.0,76,0.00,,,0.00,Wunderground v.1.15,2013-07-30 03:15:00,
2013-07-29 19:21:00,63.5,55.4,30.15,WSW,237,5.0,9.0,75,0.00,,,0.00,Wunderground v.1.15,2013-07-30 03:21:00,
2013-07-29 19:26:00,63.1,55.4,30.15,SSW,203,6.0,9.0,76,0.00,,,0.00,Wunderground v.1.15,2013-07-30 03:26:00,
2013-07-29 19:32:00,63.0,55.3,30.15,WSW,237,5.0,8.0,76,0.00,,,0.00,Wunderground v.1.15,2013-07-30 03:32:00,
2013-07-29 19:38:00,62.9,55.2,30.15,SW,235,4.0,8.0,76,0.00,,,0.00,Wunderground v.1.15,2013-07-30 03:38:00,
2013-07-29 19:43:00,62.7,55.0,30.15,SSW,211,5.0,8.0,76,0.00,,,0.00,Wunderground v.1.15,2013-07-30 03:43:00,
2013-07-29 19:49:00,62.4,54.7,30.15,West,262,6.0,6.0,76,0.00,,,0.00,Wunderground v.1.15,2013-07-30 03:49:00,
2013-07-29 19:54:00,62.3,55.0,30.15,SSW,212,5.0,8.0,77,0.00,,,0.00,Wunderground v.1.15,2013-07-30 03:54:00,
2013-07-29 20:00:00,62.1,54.8,30.15,SW,218,5.0,12.0,77,0.00,,,0.00,Wunderground v.1.15,2013-07-30 04:00:00,
2013-07-29 20:01:00,62.0,54.7,30.15,SSW,208,6.0,12.0,77,0.00,,,0.00,Wunderground v.1.15,2013-07-30 04:01:00,
2013-07-29 20:02:00,61.9,54.6,30.15,West,277,6.0,12.0,77,0.00,,,0.00,Wunderground v.1.15,2013-07-30 04:02:00,
2013-07-29 20:03:00,61.9,54.6,30.15,West,260,6.0,12.0,77,0.00,,,0.00,Wunderground v.1.15,2013-07-30 04:03:00,
2013-07-29 20:04:00,61.9,54.6,30.15,WNW,288,6.0,12.0,77,0.00,,,0.00,Wunderground v.1.15,2013-07-30 04:04:00,
2013-07-29 20:09:00,61.7,54.4,30.15,SSW,203,5.0,5.0,77,0.00,,,0.00,Wunderground v.1.15,2013-07-30 04:09:00,
2013-07-29 20:14:00,61.6,54.7,30.15,WSW,257,5.0,12.0,78,0.00,,,0.00,Wunderground v.1.15,2013-07-30 04:14:00,
2013-07-29 20:20:00,61.6,54.3,30.15,SW,224,5.0,12.0,77,0.00,,,0.00,Wunderground v.1.15,2013-07-30 04:20:00,
2013-07-29 20:25:00,61.3,54.4,30.15,WSW,239,5.0,12.0,78,0.00,,,0.00,Wunderground v.1.15,2013-07-30 04:25:00,
2013-07-29 20:30:00,61.1,53.8,30.15,SW,220,6.0,12.0,77,0.00,,,0.00,Wunderground v.1.15,2013-07-30 04:30:00,
2013-07-29 20:35:00,61.0,54.1,30.15,WNW,291,6.0,12.0,78,0.00,,,0.00,Wunderground v.1.15,2013-07-30 04:35:00,
2013-07-29 20:41:00,61.0,54.1,30.16,WSW,251,4.0,12.0,78,0.00,,,0.00,Wunderground v.1.15,2013-07-30 04:41:00,
2013-07-29 20:46:00,60.7,53.8,30.16,WSW,249,5.0,12.0,78,0.00,,,0.00,Wunderground v.1.15,2013-07-30 04:46:00,
2013-07-29 20:51:00,60.5,53.6,30.16,SW,224,6.0,12.0,78,0.00,,,0.00,Wunderground v.1.15,2013-07-30 04:51:00,
2013-07-29 20:57:00,60.3,53.8,30.16,WSW,245,5.0,12.0,79,0.00,,,0.00,Wunderground v.1.15,2013-07-30 04:57:00,
2013-07-29 21:02:00,60.1,53.6,30.16,WSW,246,5.0,14.0,79,0.00,,,0.00,Wunderground v.1.15,2013-07-30 05:02:00,
2013-07-29 21:08:00,59.7,53.5,30.16,WSW,239,6.0,14.0,80,0.00,,,0.00,Wunderground v.1.15,2013-07-30 05:08:00,
2013-07-29 21:14:00,59.3,53.1,30.16,SW,223,6.0,14.0,80,0.00,,,0.00,Wunderground v.1.15,2013-07-30 05:14:00,
2013-07-29 21:19:00,59.1,52.9,30.16,SW,216,5.0,14.0,80,0.00,,,0.00,Wunderground v.1.15,2013-07-30 05:19:00,
2013-07-29 21:25:00,58.9,52.7,30.16,WSW,255,6.0,14.0,80,0.00,,,0.00,Wunderground v.1.15,2013-07-30 05:25:00,
2013-07-29 21:30:00,58.7,52.9,30.16,West,278,6.0,14.0,81,0.00,,,0.00,Wunderground v.1.15,2013-07-30 05:30:00,
2013-07-29 21:36:00,58.6,52.8,30.16,West,266,7.0,14.0,81,0.00,,,0.00,Wunderground v.1.15,2013-07-30 05:36:00,
2013-07-29 21:41:00,58.5,52.7,30.16,WSW,246,6.0,14.0,81,0.00,,,0.00,Wunderground v.1.15,2013-07-30 05:41:00,
2013-07-29 21:46:00,58.4,52.6,30.16,WNW,283,7.0,14.0,81,0.00,,,0.00,Wunderground v.1.15,2013-07-30 05:46:00,
2013-07-29 21:52:00,58.2,52.4,30.16,West,264,9.0,14.0,81,0.00,,,0.00,Wunderground v.1.15,2013-07-30 05:52:00,
2013-07-29 21:57:00,58.0,52.2,30.16,West,271,9.0,14.0,81,0.00,,,0.00,Wunderground v.1.15,2013-07-30 05:57:00,
2013-07-29 22:03:00,57.8,52.3,30.16,West,266,11.0,16.0,82,0.00,,,0.00,Wunderground v.1.15,2013-07-30 06:03:00,
2013-07-29 22:08:00,57.6,52.1,30.16,WSW,242,11.0,16.0,82,0.00,,,0.00,Wunderground v.1.15,2013-07-30 06:08:00,
2013-07-29 22:14:00,57.5,52.0,30.16,West,267,11.0,16.0,82,0.00,,,0.00,Wunderground v.1.15,2013-07-30 06:14:00,
2013-07-29 22:19:00,57.5,52.0,30.16,WNW,300,11.0,11.0,82,0.00,,,0.00,Wunderground v.1.15,2013-07-30 06:19:00,
2013-07-29 22:25:00,57.2,52.1,30.16,West,278,10.0,16.0,83,0.00,,,0.00,Wunderground v.1.15,2013-07-30 06:25:00,
2013-07-29 22:30:00,56.9,52.1,30.16,WNW,283,10.0,16.0,84,0.00,,,0.00,Wunderground v.1.15,2013-07-30 06:30:00,
2013-07-29 22:36:00,56.9,52.1,30.16,West,275,11.0,18.0,84,0.00,,,0.00,Wunderground v.1.15,2013-07-30 06:36:00,
2013-07-29 22:42:00,56.6,51.8,30.17,WNW,287,11.0,16.0,84,0.00,,,0.00,Wunderground v.1.15,2013-07-30 06:42:00,
2013-07-29 22:47:00,56.4,51.9,30.17,West,280,10.0,16.0,85,0.00,,,0.00,Wunderground v.1.15,2013-07-30 06:47:00,
2013-07-29 22:53:00,56.2,51.7,30.17,WNW,293,9.0,16.0,85,0.00,,,0.00,Wunderground v.1.15,2013-07-30 06:53:00,
2013-07-29 22:59:00,56.0,51.9,30.17,WSW,239,9.0,9.0,86,0.00,,,0.00,Wunderground v.1.15,2013-07-30 06:59:00,
2013-07-29 23:05:00,56.3,51.8,30.17,WNW,290,8.0,15.0,85,0.00,,,0.00,Wunderground v.1.15,2013-07-30 07:05:00,
2013-07-29 23:11:00,56.2,51.7,30.17,NW,319,8.0,15.0,85,0.00,,,0.00,Wunderground v.1.15,2013-07-30 07:11:00,
2013-07-29 23:16:00,56.1,52.0,30.17,WNW,300,7.0,15.0,86,0.00,,,0.00,Wunderground v.1.15,2013-07-30 07:16:00,
2013-07-29 23:21:00,55.9,51.8,30.16,WNW,287,7.0,15.0,86,0.00,,,0.00,Wunderground v.1.15,2013-07-30 07:21:00,
2013-07-29 23:27:00,55.7,51.6,30.17,WNW,290,8.0,15.0,86,0.00,,,0.00,Wunderground v.1.15,2013-07-30 07:27:00,
2013-07-29 23:32:00,55.8,51.7,30.16,WNW,293,7.0,15.0,86,0.00,,,0.00,Wunderground v.1.15,2013-07-30 07:32:00,
2013-07-29 23:37:00,55.8,51.7,30.17,WNW,293,7.0,15.0,86,0.00,,,0.00,Wunderground v.1.15,2013-07-30 07:37:00,
2013-07-29 23:43:00,55.8,52.0,30.17,West,279,7.0,15.0,87,0.00,,,0.00,Wunderground v.1.15,2013-07-30 07:43:00,
2013-07-29 23:48:00,56.1,52.0,30.16,WNW,285,6.0,15.0,86,0.00,,,0.00,Wunderground v.1.15,2013-07-30 07:48:00,
2013-07-29 23:54:00,56.3,52.2,30.17,WNW,288,5.0,15.0,86,0.00,,,0.00,Wunderground v.1.15,2013-07-30 07:54:00,
2013-07-29 23:59:00,56.5,52.4,30.17,WNW,286,5.0,8.0,86,0.00,,,0.00,Wunderground v.1.15,2013-07-30 07:59:00,